Time;durP1;ratioP1;P1;durP2;ratioP2;P2;SDS_P1;SDS_P2;PMS_P1;PMS_P2;Temp;Humidity;BMP_temperature;BMP_pressure;BME280_temperature;BME280_humidity;BME280_pressure;Samples;Min_cycle;Max_cycle;Signal;HPM_P1;HPM_P2
2022/09/04 00:01:43;;;;;;;12.93;7.73;;;15.80;99.90;;;;;;4992549;28;20427;-86
2022/09/04 00:04:36;;;;;;;11.60;8.23;;;15.80;99.90;;;;;;4985019;28;20466;-87
2022/09/04 00:07:11;;;;;;;13.83;9.37;;;17.30;99.90;;;;;;4967207;28;20797;-85
2022/09/04 00:09:45;;;;;;;14.90;9.20;;;15.80;99.90;;;;;;4995751;28;20457;-85
2022/09/04 00:12:11;;;;;;;10.80;9.13;;;15.80;99.90;;;;;;4983092;28;20448;-86
2022/09/04 00:15:09;;;;;;;12.87;8.60;;;15.90;99.90;;;;;;4973895;28;20427;-85
2022/09/04 00:17:49;;;;;;;7.53;6.30;;;15.80;99.90;;;;;;4980703;28;20443;-86
2022/09/04 00:20:39;;;;;;;13.43;8.03;;;15.80;99.90;;;;;;4985307;28;20470;-86
2022/09/04 00:23:17;;;;;;;13.87;8.17;;;15.60;99.90;;;;;;4979659;28;20438;-86
2022/09/04 00:25:46;;;;;;;9.30;6.93;;;15.60;99.90;;;;;;4984106;28;20511;-85
2022/09/04 00:28:27;;;;;;;15.03;8.57;;;15.40;99.90;;;;;;4974053;28;20439;-86
2022/09/04 00:31:05;;;;;;;17.40;11.20;;;15.40;99.90;;;;;;4965118;28;20869;-87
2022/09/04 00:33:53;;;;;;;14.33;10.20;;;15.50;99.90;;;;;;4971114;28;21887;-86
2022/09/04 00:36:22;;;;;;;16.33;10.87;;;15.50;99.90;;;;;;4958488;28;20507;-85
2022/09/04 00:38:57;;;;;;;24.60;13.60;;;15.50;99.90;;;;;;4966108;28;21207;-84
2022/09/04 00:41:23;;;;;;;179.50;21.00;;;;;;;;;;4959961;28;20434;-86
2022/09/04 00:44:13;;;;;;;282.60;29.83;;;15.50;99.90;;;;;;4972213;28;20298;-86
2022/09/04 00:47:32;;;;;;;339.88;40.22;;;15.50;99.90;;;;;;4978258;28;20436;-85
2022/09/04 00:50:23;;;;;;;181.27;28.20;;;15.50;99.90;;;;;;4900742;29;20261;-85
2022/09/04 00:53:01;;;;;;;302.97;32.73;;;15.60;99.90;;;;;;4973607;28;20430;-86
2022/09/04 00:55:47;;;;;;;212.43;28.00;;;15.50;99.90;;;;;;4956785;28;20446;-85
2022/09/04 00:58:34;;;;;;;166.43;22.63;;;15.40;99.90;;;;;;4974940;28;20435;-87
2022/09/04 01:01:01;;;;;;;79.97;17.80;;;15.40;99.90;;;;;;4953010;28;20564;-86
2022/09/04 01:03:44;;;;;;;139.07;21.50;;;15.40;99.90;;;;;;4970297;28;20514;-86
2022/09/04 01:06:33;;;;;;;114.80;20.00;;;15.40;99.90;;;;;;4952217;28;20446;-87
2022/09/04 01:09:33;;;;;;;30.43;13.40;;;15.30;99.90;;;;;;4953238;28;20450;-86
2022/09/04 01:12:13;;;;;;;34.07;15.97;;;15.40;99.90;;;;;;4968798;28;20442;-86
2022/09/04 01:14:54;;;;;;;80.03;18.00;;;15.40;99.90;;;;;;4967059;28;20446;-86
2022/09/04 01:17:22;;;;;;;121.87;17.70;;;15.40;99.90;;;;;;4947978;28;20439;-86
2022/09/04 01:20:08;;;;;;;231.63;29.97;;;15.40;99.90;;;;;;4963245;28;20463;-86
2022/09/04 01:22:52;;;;;;;100.63;15.27;;;15.40;99.90;;;;;;4930170;28;21389;-86
2022/09/04 01:25:33;;;;;;;61.67;13.77;;;15.40;99.90;;;;;;4958556;28;21002;-86
2022/09/04 01:28:03;;;;;;;41.67;16.80;;;15.50;99.90;;;;;;4967084;28;20446;-86
2022/09/04 01:30:35;;;;;;;78.33;17.53;;;15.50;99.90;;;;;;4971540;28;20454;-87
2022/09/04 01:33:18;;;;;;;154.03;21.27;;;15.40;99.90;;;;;;4967037;28;20477;-86
2022/09/04 01:35:56;;;;;;;175.47;23.17;;;15.30;99.90;;;;;;4983542;28;20442;-87
2022/09/04 01:38:44;;;;;;;485.47;38.87;;;15.30;99.90;;;;;;4954369;28;21337;-87
2022/09/04 01:41:34;;;;;;;317.63;31.87;;;15.40;99.90;;;;;;4965619;28;20446;-87
2022/09/04 01:44:04;;;;;;;234.83;25.20;;;15.50;99.90;;;;;;4974409;28;20553;-87
2022/09/04 01:46:46;;;;;;;195.13;24.53;;;15.50;99.90;;;;;;4958030;28;20434;-87
2022/09/04 01:49:46;;;;;;;128.17;20.40;;;15.30;99.90;;;;;;4964610;28;20459;-87
2022/09/04 01:52:35;;;;;;;117.73;19.30;;;15.20;99.90;;;;;;4972469;28;20431;-87
2022/09/04 01:55:06;;;;;;;186.02;25.73;;;15.10;99.90;;;;;;4972307;28;20455;-86
2022/09/04 01:57:54;;;;;;;64.30;19.60;;;15.00;99.90;;;;;;4953822;28;20620;-87
2022/09/04 02:00:22;;;;;;;38.77;16.47;;;15.00;99.90;;;;;;4976634;28;21016;-88
2022/09/04 02:02:53;;;;;;;42.47;16.33;;;14.90;99.90;;;;;;4975426;28;20466;-87
2022/09/04 02:05:39;;;;;;;28.60;13.87;;;14.90;99.90;;;;;;4958567;28;20462;-86
2022/09/04 02:08:28;;;;;;;23.50;11.83;;;14.90;99.90;;;;;;4969170;28;20498;-88
2022/09/04 02:11:17;;;;;;;26.67;9.33;;;14.80;99.90;;;;;;4974075;28;20448;-87
2022/09/04 02:14:16;;;;;;;12.67;8.40;;;14.80;99.90;;;;;;4962227;28;20434;-87
2022/09/04 02:17:07;;;;;;;12.02;8.35;;;14.70;99.90;;;;;;4984950;28;20995;-87
2022/09/04 02:19:47;;;;;;;13.77;9.07;;;14.70;99.90;;;;;;4968309;28;20230;-86
2022/09/04 02:22:31;;;;;;;19.27;10.90;;;14.70;99.90;;;;;;4973139;28;20435;-87
2022/09/04 02:25:08;;;;;;;24.93;12.57;;;14.80;99.90;;;;;;4976285;28;20501;-88
2022/09/04 02:28:03;;;;;;;18.37;11.17;;;14.80;99.90;;;;;;4975520;28;20465;-88
2022/09/04 02:30:55;;;;;;;16.27;12.40;;;14.80;99.90;;;;;;5004184;23;21532;-85
2022/09/04 02:33:53;;;;;;;11.70;8.43;;;14.80;99.90;;;;;;4978922;28;20520;-87
2022/09/04 02:36:27;;;;;;;18.87;11.13;;;14.60;99.90;;;;;;4988013;28;20438;-84
2022/09/04 02:39:18;;;;;;;19.47;11.03;;;14.60;99.90;;;;;;4976967;28;20452;-85
2022/09/04 02:42:09;;;;;;;26.20;12.93;;;14.70;99.90;;;;;;4989229;28;20946;-87
2022/09/04 02:45:14;;;;;;;19.77;11.30;;;14.70;99.90;;;;;;4993288;28;20512;-85
2022/09/04 02:47:59;;;;;;;15.07;9.30;;;14.70;99.90;;;;;;4952378;28;20942;-83
2022/09/04 02:50:52;;;;;;;26.93;13.67;;;14.80;99.90;;;;;;4969558;28;20892;-86
2022/09/04 02:53:46;;;;;;;16.47;10.07;;;14.80;99.90;;;;;;4989014;28;20867;-88
2022/09/04 02:56:25;;;;;;;9.10;6.40;;;14.70;99.90;;;;;;4972861;28;20835;-86
2022/09/04 02:59:12;;;;;;;9.73;6.17;;;14.60;99.90;;;;;;4989589;28;20452;-86
2022/09/04 03:01:58;;;;;;;12.68;6.68;;;14.60;99.90;;;;;;4986187;28;20503;-86
2022/09/04 03:04:48;;;;;;;13.13;6.80;;;14.60;99.90;;;;;;4987570;28;20199;-87
2022/09/04 03:07:26;;;;;;;7.53;5.50;;;14.60;99.90;;;;;;4995373;28;20486;-86
2022/09/04 03:10:04;;;;;;;10.60;6.17;;;14.60;99.90;;;;;;4992440;28;20985;-86
2022/09/04 03:12:55;;;;;;;8.40;4.70;;;14.60;99.90;;;;;;4991628;28;20468;-87
2022/09/04 03:15:33;;;;;;;6.50;4.13;;;14.60;99.90;;;;;;5003047;28;20487;-85
2022/09/04 03:18:30;;;;;;;10.43;4.93;;;14.60;99.90;;;;;;4979821;28;20468;-84
2022/09/04 03:21:05;;;;;;;8.17;5.00;;;14.60;99.90;;;;;;4991432;28;20552;-87
2022/09/04 03:23:54;;;;;;;6.93;5.23;;;14.50;99.90;;;;;;4984707;28;20726;-89
2022/09/04 03:26:30;;;;;;;8.37;5.23;;;14.50;99.90;;;;;;4993165;28;20448;-86
2022/09/04 03:29:08;;;;;;;9.73;5.57;;;14.60;99.90;;;;;;4988129;28;20529;-86
2022/09/04 03:31:39;;;;;;;9.50;4.97;;;14.60;99.90;;;;;;4984775;28;20473;-87
2022/09/04 03:34:32;;;;;;;9.10;5.40;;;14.60;99.90;;;;;;4975858;28;20441;-84
2022/09/04 03:37:06;;;;;;;16.93;8.53;;;14.50;99.90;;;;;;4978945;28;20850;-85
2022/09/04 03:40:10;;;;;;;11.00;6.47;;;14.50;99.90;;;;;;4984634;28;20453;-85
2022/09/04 03:43:05;;;;;;;12.87;7.60;;;14.50;99.90;;;;;;4967539;28;20450;-86
2022/09/04 03:45:55;;;;;;;22.07;10.90;;;14.60;99.90;;;;;;4989339;28;20508;-87
2022/09/04 03:48:45;;;;;;;54.17;16.23;;;14.60;99.90;;;;;;4995147;28;20429;-87
2022/09/04 03:51:25;;;;;;;44.70;15.60;;;14.60;99.90;;;;;;4995126;28;20437;-86
2022/09/04 03:54:11;;;;;;;20.33;10.10;;;14.60;99.90;;;;;;4984072;28;20449;-87
2022/09/04 03:56:45;;;;;;;18.70;6.23;;;14.70;99.90;;;;;;4997711;28;20441;-86
2022/09/04 03:59:36;;;;;;;79.27;12.63;;;14.70;99.90;;;;;;4979728;28;20528;-86
2022/09/04 04:02:17;;;;;;;64.20;12.57;;;14.50;99.90;;;;;;5007261;28;20446;-87
2022/09/04 04:05:01;;;;;;;88.47;15.63;;;14.50;99.90;;;;;;4994051;28;20216;-89
2022/09/04 04:07:49;;;;;;;274.50;26.00;;;14.50;99.90;;;;;;4997993;28;20470;-87
2022/09/04 04:10:34;;;;;;;302.00;29.90;;;14.60;99.90;;;;;;5000622;28;20457;-86
2022/09/04 04:13:34;;;;;;;346.70;32.37;;;14.50;99.90;;;;;;4987271;28;20429;-86
2022/09/04 04:16:02;;;;;;;128.30;18.97;;;14.60;99.90;;;;;;4989178;28;20825;-85
2022/09/04 04:18:53;;;;;;;100.03;16.57;;;14.60;99.90;;;;;;4992984;28;20442;-88
2022/09/04 04:21:54;;;;;;;168.17;17.63;;;14.70;99.90;;;;;;4986692;28;21273;-85
2022/09/04 04:24:38;;;;;;;99.63;16.90;;;14.70;99.90;;;;;;4994439;28;20576;-85
2022/09/04 04:27:09;;;;;;;37.17;12.13;;;14.70;99.90;;;;;;4983084;28;20987;-87
2022/09/04 04:30:03;;;;;;;86.90;14.40;;;14.60;99.90;;;;;;4989914;28;20931;-89
2022/09/04 04:32:47;;;;;;;124.57;16.97;;;14.60;99.90;;;;;;4994814;28;20444;-87
2022/09/04 04:35:51;;;;;;;33.77;10.97;;;14.50;99.90;;;;;;4977136;28;20444;-87
2022/09/04 04:38:23;;;;;;;34.73;11.13;;;14.40;99.90;;;;;;4954110;28;20564;-86
2022/09/04 04:41:07;;;;;;;25.30;10.00;;;14.40;99.90;;;;;;4989204;28;21548;-88
2022/09/04 04:44:04;;;;;;;65.47;15.90;;;14.40;99.90;;;;;;4998988;28;20509;-86
2022/09/04 04:47:00;;;;;;;73.00;15.05;;;14.40;99.90;;;;;;4991610;28;20477;-85
2022/09/04 04:50:01;;;;;;;58.42;14.35;;;14.30;99.90;;;;;;4981856;28;20199;-87
2022/09/04 04:52:52;;;;;;;37.83;12.43;;;14.30;99.90;;;;;;5000385;28;20210;-87
2022/09/04 04:55:37;;;;;;;66.40;15.93;;;14.30;99.90;;;;;;4985442;28;20438;-87
2022/09/04 04:58:10;;;;;;;42.67;13.05;;;14.40;99.90;;;;;;4988357;28;20445;-87
2022/09/04 05:00:52;;;;;;;81.40;15.07;;;14.50;99.90;;;;;;4986183;28;20210;-85
2022/09/04 05:03:33;;;;;;;31.80;14.23;;;14.60;99.90;;;;;;4984528;28;20425;-87
2022/09/04 05:06:21;;;;;;;22.40;12.10;;;14.70;99.90;;;;;;4981299;28;20469;-86
2022/09/04 05:08:54;;;;;;;62.03;15.45;;;14.90;99.90;;;;;;4985004;28;20440;-84
2022/09/04 05:11:28;;;;;;;26.75;12.35;;;15.10;99.90;;;;;;4997779;28;20183;-89
2022/09/04 05:14:24;;;;;;;48.33;14.50;;;15.30;99.90;;;;;;4983775;28;20194;-87
2022/09/04 05:17:13;;;;;;;21.10;9.20;;;15.80;99.90;;;;;;4978433;28;20426;-85
2022/09/04 05:19:51;;;;;;;9.40;7.20;;;16.70;99.90;;;;;;4988459;28;21211;-86
2022/09/04 05:22:28;;;;;;;7.80;6.30;;;17.80;99.90;;;;;;4978794;28;20977;-86
2022/09/04 05:25:04;;;;;;;10.30;5.40;;;18.80;99.90;;;;;;4981001;28;20533;-87
2022/09/04 05:27:54;;;;;;;17.10;7.93;;;19.30;99.90;;;;;;4992581;28;20815;-87
2022/09/04 05:30:49;;;;;;;16.93;5.77;;;19.90;99.90;;;;;;4972116;28;20556;-87
2022/09/04 05:33:43;;;;;;;14.80;6.83;;;19.80;99.90;;;;;;4977940;28;21686;-88
2022/09/04 05:36:30;;;;;;;13.73;6.20;;;20.70;99.90;;;;;;4968711;28;20517;-87
2022/09/04 05:39:19;;;;;;;25.93;6.80;;;21.60;99.90;;;;;;4985736;28;20526;-85
2022/09/04 05:42:09;;;;;;;14.43;7.20;;;22.00;99.90;;;;;;4987972;28;20442;-87
2022/09/04 05:44:44;;;;;;;16.30;5.80;;;21.90;99.90;;;;;;4983818;28;20541;-85
2022/09/04 05:47:41;;;;;;;34.97;6.70;;;22.80;99.90;;;;;;4983782;28;20463;-84
2022/09/04 05:50:20;;;;;;;42.03;6.93;;;23.00;99.90;;;;;;4989545;28;21166;-87
2022/09/04 05:53:18;;;;;;;38.33;8.80;;;22.90;99.90;;;;;;4993127;28;20437;-86
2022/09/04 05:56:18;;;;;;;61.73;10.00;;;22.60;99.90;;;;;;4992742;28;20536;-84
2022/09/04 05:59:22;;;;;;;50.97;9.03;;;22.30;99.90;;;;;;4982874;28;20460;-86
2022/09/04 06:02:00;;;;;;;21.03;6.60;;;22.20;99.90;;;;;;4984286;28;20442;-85
2022/09/04 06:04:59;;;;;;;20.30;6.00;;;22.30;99.90;;;;;;4985884;28;20473;-85
2022/09/04 06:07:35;;;;;;;51.50;6.80;;;22.70;99.90;;;;;;4991141;28;20442;-85
2022/09/04 06:10:16;;;;;;;17.70;6.27;;;22.90;99.90;;;;;;4981785;28;20460;-87
2022/09/04 06:13:10;;;;;;;37.63;6.90;;;23.00;99.90;;;;;;5010688;28;20420;-83
2022/09/04 06:15:46;;;;;;;32.60;6.87;;;23.20;99.90;;;;;;5005931;28;20524;-87
2022/09/04 06:18:39;;;;;;;37.67;6.30;;;23.10;99.90;;;;;;4994530;28;20525;-86
2022/09/04 06:21:39;;;;;;;84.73;8.87;;;22.80;99.90;;;;;;4986644;28;20533;-85
2022/09/04 06:24:54;;;;;;;132.50;10.60;;;23.00;99.90;;;;;;4992406;28;20522;-85
2022/09/04 06:27:52;;;;;;;138.63;11.80;;;22.60;99.90;;;;;;4955385;28;20450;-85
2022/09/04 06:30:18;;;;;;;38.03;7.60;;;22.50;99.90;;;;;;4980823;28;20465;-86
2022/09/04 06:33:11;;;;;;;67.20;8.27;;;22.80;99.90;;;;;;4980530;28;20460;-87
2022/09/04 06:36:01;;;;;;;42.53;7.47;;;23.70;99.90;;;;;;4992206;28;20175;-84
2022/09/04 06:38:48;;;;;;;39.20;6.73;;;25.00;99.90;;;;;;4987680;28;21425;-89
2022/09/04 06:41:37;;;;;;;14.23;6.70;;;26.20;99.90;;;;;;4984225;28;20433;-85
2022/09/04 06:44:40;;;;;;;17.60;6.00;;;26.60;99.90;;;;;;4993253;28;20605;-88
2022/09/04 06:47:12;;;;;;;30.37;6.10;;;28.40;99.90;;;;;;4986245;28;20445;-86
2022/09/04 06:50:04;;;;;;;20.13;6.27;;;30.70;99.90;;;;;;4985927;28;20467;-87
2022/09/04 06:52:49;;;;;;;10.47;5.33;;;30.40;99.90;;;;;;4989015;28;20507;-87
2022/09/04 06:55:52;;;;;;;20.10;6.27;;;29.90;99.90;;;;;;4992094;28;20446;-87
2022/09/04 06:58:20;;;;;;;31.37;6.57;;;29.60;99.90;;;;;;4984537;28;20478;-85
2022/09/04 07:01:20;;;;;;;26.80;6.40;;;29.00;99.90;;;;;;4981749;28;20473;-85
2022/09/04 07:04:19;;;;;;;30.17;5.30;;;29.30;99.90;;;;;;4975353;28;20500;-85
2022/09/04 07:07:09;;;;;;;19.03;5.57;;;28.80;99.90;;;;;;4989208;28;20460;-87
2022/09/04 07:09:42;;;;;;;9.30;5.60;;;28.50;99.90;;;;;;4992207;28;20484;-86
2022/09/04 07:12:28;;;;;;;10.90;5.57;;;29.20;99.90;;;;;;4990767;28;20472;-86
2022/09/04 07:15:19;;;;;;;6.93;5.73;;;29.60;99.90;;;;;;4982895;28;20450;-86
2022/09/04 07:18:14;;;;;;;7.20;4.93;;;31.30;99.90;;;;;;4978719;28;20543;-82
2022/09/04 07:21:02;;;;;;;9.13;6.07;;;32.40;97.30;;;;;;4981567;28;20472;-88
2022/09/04 07:23:44;;;;;;;7.00;6.40;;;32.60;96.20;;;;;;4967588;28;20437;-84
2022/09/04 07:26:35;;;;;;;7.87;5.80;;;34.20;93.70;;;;;;4968643;28;20469;-86
2022/09/04 07:29:31;;;;;;;8.67;5.00;;;33.30;92.80;;;;;;4968589;28;20750;-84
2022/09/04 07:32:19;;;;;;;6.80;5.83;;;31.80;92.40;;;;;;4964646;28;21077;-85
2022/09/04 07:35:00;;;;;;;7.30;5.63;;;30.30;96.80;;;;;;4971830;28;20500;-85
2022/09/04 07:37:38;;;;;;;6.63;5.50;;;31.30;97.00;;;;;;4982686;28;20576;-86
2022/09/04 07:40:34;;;;;;;8.07;6.80;;;31.10;96.80;;;;;;4989684;28;20496;-84
2022/09/04 07:43:12;;;;;;;5.90;5.30;;;31.70;95.70;;;;;;5014465;28;20440;-83
2022/09/04 07:45:53;;;;;;;7.17;5.87;;;33.00;94.60;;;;;;4985040;28;20559;-88
2022/09/04 07:48:35;;;;;;;6.97;5.70;;;34.90;91.40;;;;;;4974834;28;21034;-85
2022/09/04 07:51:08;;;;;;;6.17;5.40;;;34.80;83.90;;;;;;4980690;28;20498;-90
2022/09/04 07:53:40;;;;;;;6.83;6.30;;;34.80;85.00;;;;;;4988688;28;21446;-86
2022/09/04 07:56:15;;;;;;;7.43;6.77;;;33.30;84.70;;;;;;4992728;28;20985;-87
2022/09/04 07:58:43;;;;;;;7.87;6.97;;;;;;;;;;4984676;28;21017;-86
2022/09/04 08:01:08;;;;;;;8.33;7.63;;;;;;;;;;4990488;28;20477;-88
2022/09/04 08:04:07;;;;;;;7.57;6.80;;;31.30;92.90;;;;;;4988259;28;20530;-86
2022/09/04 08:06:59;;;;;;;5.90;5.40;;;30.90;94.30;;;;;;4971368;28;20454;-85
2022/09/04 08:09:47;;;;;;;5.37;4.87;;;31.70;95.20;;;;;;4972364;28;20474;-86
2022/09/04 08:12:24;;;;;;;6.70;6.10;;;33.60;91.00;;;;;;4970940;28;20497;-86
2022/09/04 08:15:21;;;;;;;6.60;6.00;;;33.60;91.30;;;;;;4970390;28;20435;-87
2022/09/04 08:18:02;;;;;;;9.13;6.50;;;33.70;91.90;;;;;;4973670;28;20966;-89
2022/09/04 08:20:42;;;;;;;6.97;6.33;;;34.40;91.20;;;;;;4963626;28;20466;-86
2022/09/04 08:23:32;;;;;;;7.77;6.90;;;34.20;90.50;;;;;;4971191;28;20708;-85
2022/09/04 08:26:01;;;;;;;7.07;6.47;;;34.20;91.00;;;;;;4952824;28;20495;-82
2022/09/04 08:28:55;;;;;;;6.83;6.33;;;35.00;87.10;;;;;;4966728;28;20435;-86
2022/09/04 08:31:49;;;;;;;7.77;7.17;;;35.60;84.60;;;;;;4986720;28;20449;-85
2022/09/04 08:34:36;;;;;;;7.93;7.20;;;36.60;81.00;;;;;;4967254;28;21402;-87
2022/09/04 08:37:02;;;;;;;9.27;8.57;;;;;;;;;;4982173;28;20529;-84
2022/09/04 08:39:45;;;;;;;10.50;8.90;;;37.90;68.90;;;;;;4975953;28;20444;-82
2022/09/04 08:42:19;;;;;;;9.33;8.63;;;37.80;69.50;;;;;;4965942;28;21104;-84
2022/09/04 08:44:45;;;;;;;8.10;7.60;;;;;;;;;;4981053;28;21000;-85
2022/09/04 08:47:11;;;;;;;10.53;9.83;;;;;;;;;;4984723;28;20429;-84
2022/09/04 08:50:14;;;;;;;8.87;8.27;;;38.70;65.70;;;;;;4979580;28;20401;-87
2022/09/04 08:53:05;;;;;;;11.47;10.77;;;39.50;63.20;;;;;;4989869;28;20436;-85
2022/09/04 08:56:17;;;;;;;9.00;8.50;;;39.60;62.90;;;;;;4982942;28;21055;-84
2022/09/04 08:58:45;;;;;;;8.50;7.90;;;38.50;58.70;;;;;;4972891;28;20439;-84
2022/09/04 09:01:34;;;;;;;9.30;8.40;;;36.90;59.60;;;;;;4988287;28;20464;-86
2022/09/04 09:04:37;;;;;;;9.20;8.50;;;37.20;61.20;;;;;;4977472;28;20529;-86
2022/09/04 09:07:30;;;;;;;10.33;9.63;;;38.10;61.90;;;;;;4975394;28;20731;-86
2022/09/04 09:10:32;;;;;;;8.53;8.00;;;38.00;60.50;;;;;;4989832;28;20456;-84
2022/09/04 09:13:43;;;;;;;9.10;8.60;;;37.40;59.30;;;;;;5012028;28;20693;-84
2022/09/04 09:16:25;;;;;;;8.20;7.70;;;36.40;62.10;;;;;;4962775;28;20453;-89
2022/09/04 09:18:51;;;;;;;8.37;7.87;;;;;;;;;;4977579;28;21196;-87
2022/09/04 09:21:20;;;;;;;8.27;7.87;;;37.60;59.60;;;;;;4986878;28;20447;-84
2022/09/04 09:24:17;;;;;;;7.97;7.47;;;36.20;60.90;;;;;;5001814;23;20251;-88
2022/09/04 09:26:58;;;;;;;9.13;8.60;;;37.20;57.90;;;;;;4970942;28;20946;-88
2022/09/04 09:29:59;;;;;;;7.97;7.47;;;37.20;58.50;;;;;;4974243;28;20430;-91
2022/09/04 09:33:14;;;;;;;8.47;7.97;;;35.40;62.30;;;;;;4952785;28;20516;-90
2022/09/04 09:36:05;;;;;;;7.90;7.43;;;35.10;65.50;;;;;;4947438;28;20856;-89
2022/09/04 09:39:11;;;;;;;7.83;7.33;;;38.20;64.00;;;;;;4968821;28;20444;-89
2022/09/04 09:41:37;;;;;;;8.30;7.70;;;;;;;;;;4976403;28;21041;-89
2022/09/04 09:44:11;;;;;;;9.00;8.30;;;38.10;55.80;;;;;;4963345;28;20529;-89
2022/09/04 09:46:44;;;;;;;8.20;7.70;;;34.50;61.90;;;;;;4955090;28;20443;-89
2022/09/04 09:49:44;;;;;;;7.00;6.60;;;33.30;67.80;;;;;;4949692;28;21912;-88
2022/09/04 09:52:18;;;;;;;7.17;6.77;;;36.10;60.80;;;;;;4942385;28;21581;-88
2022/09/04 09:55:37;;;;;;;7.40;7.00;;;36.30;61.40;;;;;;4957923;28;20442;-88
2022/09/04 09:58:31;;;;;;;8.20;7.70;;;36.00;56.60;;;;;;4941877;28;20984;-86
2022/09/04 10:01:09;;;;;;;8.63;7.80;;;34.20;58.40;;;;;;4968675;28;20472;-88
2022/09/04 10:03:37;;;;;;;6.50;6.20;;;33.30;64.60;;;;;;4946966;28;20815;-87
2022/09/04 10:06:26;;;;;;;6.13;5.60;;;32.60;64.80;;;;;;4970021;28;20492;-87
2022/09/04 10:09:04;;;;;;;4.80;4.50;;;31.30;69.90;;;;;;4970396;28;20441;-85
2022/09/04 10:11:57;;;;;;;5.33;3.70;;;29.80;75.30;;;;;;4972237;28;20436;-86
2022/09/04 10:14:32;;;;;;;5.20;2.90;;;29.00;80.50;;;;;;4959477;28;22314;-85
2022/09/04 10:17:32;;;;;;;3.07;2.20;;;28.80;82.40;;;;;;4955214;28;20442;-86
2022/09/04 10:20:22;;;;;;;2.13;1.60;;;27.60;87.40;;;;;;4946075;28;20472;-87
2022/09/04 10:22:54;;;;;;;3.13;2.10;;;26.50;89.90;;;;;;4971952;28;22170;-88
2022/09/04 10:25:35;;;;;;;2.93;2.30;;;26.10;94.20;;;;;;4949884;28;20464;-88
2022/09/04 10:28:26;;;;;;;3.87;2.60;;;25.90;98.10;;;;;;4953152;28;20439;-85
2022/09/04 10:31:16;;;;;;;10.20;2.27;;;25.70;99.90;;;;;;4980213;28;20437;-85
2022/09/04 10:34:03;;;;;;;3.20;2.53;;;26.10;99.90;;;;;;4980550;28;20460;-87
2022/09/04 10:36:58;;;;;;;2.00;1.80;;;26.40;99.90;;;;;;4957500;28;22119;-86
2022/09/04 10:40:35;;;;;;;2.67;2.23;;;26.50;99.90;;;;;;4957542;28;20441;-85
2022/09/04 10:43:21;;;;;;;2.63;2.13;;;27.20;98.00;;;;;;4963583;28;20496;-86
2022/09/04 10:46:27;;;;;;;4.10;2.77;;;27.70;96.00;;;;;;4983859;28;20515;-84
2022/09/04 10:49:11;;;;;;;3.50;1.93;;;28.10;95.10;;;;;;4983525;28;20430;-85
2022/09/04 10:51:43;;;;;;;2.50;1.80;;;27.50;96.20;;;;;;4977740;28;20446;-86
2022/09/04 10:54:28;;;;;;;3.37;1.93;;;26.40;97.00;;;;;;4952025;28;20524;-85
2022/09/04 10:57:07;;;;;;;4.07;2.30;;;27.10;96.90;;;;;;4972603;28;20468;-86
2022/09/04 11:00:05;;;;;;;2.20;1.90;;;27.20;96.30;;;;;;4954176;28;20981;-87
2022/09/04 11:03:11;;;;;;;2.97;2.10;;;26.30;96.90;;;;;;4948650;28;20995;-88
2022/09/04 11:05:43;;;;;;;3.03;2.10;;;25.90;98.30;;;;;;4977664;28;20466;-88
2022/09/04 11:08:42;;;;;;;2.90;2.20;;;25.80;98.60;;;;;;4970445;28;20438;-88
2022/09/04 11:11:26;;;;;;;2.30;2.00;;;26.20;98.50;;;;;;4971609;28;20518;-88
2022/09/04 11:14:08;;;;;;;1.73;1.63;;;26.00;98.10;;;;;;4954583;28;20943;-87
2022/09/04 11:16:54;;;;;;;2.63;2.07;;;25.80;98.50;;;;;;4972015;28;20436;-87
2022/09/04 11:19:55;;;;;;;1.77;1.50;;;25.70;98.80;;;;;;4945728;28;20447;-87
2022/09/04 11:22:58;;;;;;;4.30;2.20;;;25.50;99.50;;;;;;4960861;28;20520;-87
2022/09/04 11:25:51;;;;;;;4.50;2.50;;;24.90;99.90;;;;;;4963341;28;20516;-87
2022/09/04 11:29:01;;;;;;;1.97;1.83;;;25.00;99.90;;;;;;4975148;28;20523;-87
2022/09/04 11:31:51;;;;;;;44.67;38.80;;;25.10;99.90;;;;;;4878895;29;20652;-87
2022/09/04 11:34:50;;;;;;;3.50;2.00;;;25.20;99.90;;;;;;4886318;29;20882;-87
2022/09/04 11:37:46;;;;;;;2.40;2.20;;;25.40;98.80;;;;;;4973371;28;20448;-88
2022/09/04 11:40:21;;;;;;;4.93;1.70;;;25.40;99.00;;;;;;4975574;28;20454;-88
2022/09/04 11:43:23;;;;;;;6.07;1.80;;;25.60;98.70;;;;;;4982843;28;20826;-87
2022/09/04 11:46:17;;;;;;;3.83;2.00;;;26.20;96.40;;;;;;4947843;28;20496;-87
2022/09/04 11:48:53;;;;;;;2.83;2.30;;;26.70;96.10;;;;;;4972621;28;20958;-88
2022/09/04 11:51:43;;;;;;;5.00;2.67;;;26.60;96.00;;;;;;4958214;28;20439;-87
2022/09/04 11:54:38;;;;;;;2.20;1.90;;;26.70;94.80;;;;;;4973712;28;20544;-87
2022/09/04 11:57:12;;;;;;;4.50;2.47;;;26.30;96.10;;;;;;4976295;28;20431;-88
2022/09/04 12:00:11;;;;;;;2.40;2.20;;;26.00;96.90;;;;;;4972573;28;20428;-86
2022/09/04 12:03:15;;;;;;;2.60;2.20;;;25.90;97.90;;;;;;4960122;28;20480;-87
2022/09/04 12:05:58;;;;;;;3.23;2.33;;;26.20;97.30;;;;;;4973282;28;20488;-87
2022/09/04 12:08:51;;;;;;;2.33;2.13;;;26.70;96.60;;;;;;4978633;28;20512;-85
2022/09/04 12:11:55;;;;;;;3.07;2.30;;;27.60;95.80;;;;;;4989929;28;20465;-83
2022/09/04 12:14:27;;;;;;;2.10;1.90;;;27.70;88.90;;;;;;4990395;28;20437;-82
2022/09/04 12:17:35;;;;;;;2.13;1.80;;;28.10;88.40;;;;;;4989968;28;21112;-84
2022/09/04 12:20:35;;;;;;;2.80;2.60;;;29.00;86.60;;;;;;4921531;28;20596;-86
2022/09/04 12:23:34;;;;;;;2.10;1.90;;;29.00;85.10;;;;;;4977326;28;20485;-84
2022/09/04 12:26:21;;;;;;;2.40;1.87;;;29.10;85.20;;;;;;4951898;28;20547;-85
2022/09/04 12:29:10;;;;;;;4.93;2.27;;;29.00;81.90;;;;;;4973908;28;20526;-87
2022/09/04 12:32:05;;;;;;;5.90;2.23;;;28.60;84.50;;;;;;4975007;28;20446;-85
2022/09/04 12:34:59;;;;;;;2.33;2.13;;;27.90;86.30;;;;;;4979405;28;20534;-85
2022/09/04 12:38:10;;;;;;;3.40;1.67;;;27.50;89.10;;;;;;4975753;28;20969;-84
2022/09/04 12:41:07;;;;;;;2.53;2.03;;;27.20;88.40;;;;;;4949877;28;20822;-85
2022/09/04 12:43:45;;;;;;;2.63;1.67;;;26.80;90.80;;;;;;4975304;28;20463;-84
2022/09/04 12:46:25;;;;;;;3.80;1.63;;;26.20;91.60;;;;;;4980266;28;20452;-85
2022/09/04 12:49:12;;;;;;;3.10;1.90;;;25.30;93.30;;;;;;4977266;28;20832;-85
2022/09/04 12:52:17;;;;;;;2.60;1.70;;;25.20;96.00;;;;;;4974067;28;20439;-85
2022/09/04 12:55:08;;;;;;;3.40;1.77;;;25.10;96.20;;;;;;4955075;28;20453;-86
2022/09/04 12:57:39;;;;;;;1.73;1.50;;;25.00;95.70;;;;;;4971167;28;20438;-84
2022/09/04 13:00:10;;;;;;;6.17;2.00;;;25.00;95.80;;;;;;4971133;28;20943;-83
2022/09/04 13:02:56;;;;;;;1.37;1.23;;;25.00;96.50;;;;;;4974270;28;20474;-85
2022/09/04 13:05:37;;;;;;;3.47;1.67;;;24.90;97.20;;;;;;4977638;28;20465;-86
2022/09/04 13:08:17;;;;;;;2.13;1.50;;;25.00;96.70;;;;;;4973335;28;20446;-87
2022/09/04 13:11:01;;;;;;;4.40;1.70;;;25.50;96.00;;;;;;4972483;28;20589;-83
2022/09/04 13:13:55;;;;;;;6.47;1.60;;;26.10;94.40;;;;;;4977659;28;20461;-87
2022/09/04 13:16:57;;;;;;;1.90;1.70;;;26.90;91.90;;;;;;4984923;28;20815;-84
2022/09/04 13:19:44;;;;;;;1.90;1.70;;;27.80;91.00;;;;;;4990496;28;20611;-84
2022/09/04 13:22:38;;;;;;;1.80;1.70;;;28.00;85.10;;;;;;4980381;28;20441;-83
2022/09/04 13:25:26;;;;;;;1.70;1.60;;;28.00;84.40;;;;;;4973092;28;20466;-87
2022/09/04 13:28:22;;;;;;;2.40;1.57;;;28.00;84.20;;;;;;4967641;28;20465;-85
2022/09/04 13:30:59;;;;;;;2.40;1.70;;;28.00;84.20;;;;;;4972533;28;20438;-87
2022/09/04 13:33:46;;;;;;;2.10;1.90;;;27.80;84.90;;;;;;4972313;28;20457;-86
2022/09/04 13:36:34;;;;;;;2.13;1.80;;;27.00;86.20;;;;;;4973408;28;20437;-87
2022/09/04 13:39:35;;;;;;;2.00;1.50;;;26.30;87.40;;;;;;4954078;28;20524;-86
2022/09/04 13:42:41;;;;;;;4.03;2.00;;;26.60;89.80;;;;;;4972954;28;20975;-87
2022/09/04 13:45:09;;;;;;;2.87;1.90;;;26.60;88.50;;;;;;4972256;28;20461;-85
2022/09/04 13:48:07;;;;;;;4.40;1.70;;;27.10;87.50;;;;;;4970938;28;20457;-85
2022/09/04 13:50:51;;;;;;;2.23;2.03;;;27.20;86.90;;;;;;4966310;28;20464;-84
2022/09/04 13:53:20;;;;;;;2.37;1.90;;;27.30;83.70;;;;;;4974298;28;20888;-83
2022/09/04 13:56:02;;;;;;;4.43;1.90;;;27.40;82.60;;;;;;4963239;28;20474;-84
2022/09/04 13:58:40;;;;;;;2.27;1.67;;;27.50;83.20;;;;;;4965305;28;20437;-86
2022/09/04 14:01:14;;;;;;;2.27;2.07;;;27.30;83.60;;;;;;4967802;28;20984;-85
2022/09/04 14:04:18;;;;;;;2.10;1.90;;;27.10;84.10;;;;;;4971199;28;20544;-86
2022/09/04 14:06:45;;;;;;;2.47;1.60;;;26.90;85.30;;;;;;4906524;29;21260;-85
2022/09/04 14:09:10;;;;;;;2.37;1.80;;;26.80;84.90;;;;;;4949944;28;20439;-86
2022/09/04 14:12:17;;;;;;;3.00;1.80;;;26.60;85.20;;;;;;4949720;28;20440;-86
2022/09/04 14:14:42;;;;;;;2.17;2.00;;;26.60;85.70;;;;;;4953962;28;20759;-86
2022/09/04 14:17:11;;;;;;;2.00;1.70;;;26.50;87.70;;;;;;4956114;28;20462;-86
2022/09/04 14:20:05;;;;;;;2.10;1.90;;;26.30;88.70;;;;;;4948232;28;20188;-85